Terminal Aerodrome Forecast
Issued by NWS

Home | Current Version | Previous Version | Text Only | Print | Product List | Glossary On
Versions: 1 2 3 4 5 6 7 8 9 10 11 12 13 14 15
520
FTUS43 KMQT 232332
TAFSAW
TAF
KSAW 232332Z 2400/2424 18012G20KT P6SM -FZRA OVC040
     FM240300 19010KT 5SM -FZRA OVC025
     FM240700 20006KT 2SM -FZRA OVC015
     FM240900 21004KT 2SM -FZRA OVC008
     FM241200 26003KT 2SM -RA OVC008
     FM241500 35005KT 2SM -RA OVC003
     FM241900 01006KT P6SM OVC008=

USA.gov is the U.S. government's official web portal to all federal, state and local government web resources and services.